Terminal Aerodrome Forecast
Issued by NWS

Home | Current Version | Previous Version | Graphics & Text | Print | Product List | Glossary On
Versions: 1 2 3 4 5 6 7 8 9 10 11 12 13
460
FTUS43 KBIS 191739
TAFJMS
TAF
KJMS 191739Z 1918/2018 14014KT P6SM SCT250
     FM200300 14008KT P6SM BKN070
     FM200900 17009KT P6SM -RA OVC010
     FM201200 18009KT 3SM -RA BR OVC015
     FM201700 28014KT P6SM BKN025=

USA.gov is the U.S. government's official web portal to all federal, state and local government web resources and services.